高松空港の過去48時間の天気

高松空港 (Takamatsu)

現在時刻: 4/22 22:10 JST (4/22 13:10 UTC) 以下の時間は現地時間です。

過去48時間のMETAR気象情報
時間 風向 風速(m/s) 視程 気温(℃) 湿度(%) 気圧(hPa) 天気現象
22 21:00 南東 3 10km以上 19 56 1016
22 20:00 南南東 2 10km以上 20 53 1015
22 19:00 3 10km以上 21 53 1014
22 18:00 2 10km以上 24 41 1014
22 17:00 北東 2 10km以上 25 32 1013
22 16:00 南東 2 10km以上 25 30 1013
22 15:00 2 10km以上 26 23 1013
22 14:00 北北西 3 10km以上 25 36 1014
22 13:00 3 10km以上 25 44 1014
22 12:00 3 10km以上 24 44 1014
22 11:00 2 10km以上 23 47 1015
22 10:00 不定 2 10km以上 22 53 1015
22 09:00 不定 2 10km以上 21 60 1015
22 08:00 南西 2 10km以上 19 73 1015
22 07:00 南西 2 10km以上 16 82 1014
22 06:20 南西 2 10km以上 16 77 1014
21 21:00 東南東 1 10km以上 18 77 1012
21 20:00 南東 3 10km以上 18 68 1011
21 19:00 南東 3 10km以上 20 60 1011
21 18:00 南南西 2 10km以上 22 53 1011
21 17:00 不定 1 10km以上 22 57 1011
21 16:00 北東 2 10km以上 23 53 1011
21 15:00 北北東 2 10km以上 23 57 1011
21 14:00 3 10km以上 23 53 1011
21 13:00 3 10km以上 23 57 1011
21 12:00 不定 2 10km以上 22 60 1012
21 11:00 3 10km以上 21 56 1012
21 10:00 3 10km以上 21 60 1013
21 09:00 北北東 2 10km以上 19 60 1013
21 08:00 不定 1 10km以上 15 77 1013
21 07:00 東南東 2 10km以上 14 88 1014
21 06:20 南東 2 10km以上 12 94 1013
RJOT 221200Z 13005KT CAVOK 19/10 Q1016
RJOT 221100Z 15004KT 110V200 CAVOK 20/10 Q1015
RJOT 221000Z 10005KT 060V140 CAVOK 21/11 Q1014
RJOT 220900Z 09003KT CAVOK 24/10 Q1014
RJOT 220800Z 04003KT 320V090 CAVOK 25/07 Q1013
RJOT 220700Z 13004KT 070V190 CAVOK 25/06 Q1013
RJOT 220600Z 36004KT 310V070 9999 FEW030 26/03 Q1013
RJOT 220500Z 33006KT 250V030 9999 FEW030 25/09 Q1014
RJOT 220400Z 36005KT 270V070 9999 FEW030 25/12 Q1014
RJOT 220300Z 01005KT 320V080 9999 FEW030 24/11 Q1014
RJOT 220200Z 36004KT 300V080 9999 FEW030 23/11 Q1015
RJOT 220100Z VRB03KT 9999 FEW030 22/12 Q1015
RJOT 220000Z VRB03KT 9999 FEW035 SCT/// 21/13 Q1015
RJOT 212300Z 23004KT 200V260 9999 FEW000 BKN050 19/14 Q1015
RJOT 212200Z 22004KT 9999 FEW000 SCT150 BKN/// 16/13 Q1014
RJOT 212120Z 23003KT 9999 FEW000 SCT150 BKN/// 16/12 Q1014 RMK 1ST000 4AC150 A2995
RJOT 211200Z 12002KT 9999 FEW030 BKN/// 18/14 Q1012
RJOT 211100Z 13005KT 9999 FEW030 BKN/// 18/12 Q1011
RJOT 211000Z 14005KT 9999 FEW030 SCT070 BKN/// 20/12 Q1011
RJOT 210900Z 21003KT 160V250 9999 FEW030 SCT060 BKN/// 22/12 Q1011
RJOT 210800Z VRB02KT 9999 FEW030 SCT060 BKN/// 22/13 Q1011
RJOT 210700Z 04004KT 340V090 9999 FEW030 SCT040 BKN050 23/13 Q1011
RJOT 210600Z 03003KT 350V120 9999 FEW030 SCT040 BKN050 23/14 Q1011
RJOT 210500Z 36005KT 290V030 9999 FEW030 SCT040 23/13 Q1011
RJOT 210400Z 36005KT 310V050 9999 FEW030 23/14 Q1011
RJOT 210300Z VRB04KT 9999 FEW030 22/14 Q1012
RJOT 210200Z 36006KT 330V030 9999 FEW030 21/12 Q1012
RJOT 210100Z 01006KT 330V090 9999 FEW030 21/13 Q1013
RJOT 210000Z 02004KT 310V060 9999 FEW030 19/11 Q1013
RJOT 202300Z VRB02KT CAVOK 15/11 Q1013
RJOT 202200Z 12004KT CAVOK 14/12 Q1014
RJOT 202120Z 14004KT CAVOK 12/11 Q1013 RMK A2993